createdAt,value
2018-05-02T00:00:36.700Z,95954
2018-05-02T00:03:05.603Z,95950
2018-05-02T00:05:34.504Z,95943
2018-05-02T00:08:03.379Z,95947
2018-05-02T00:10:32.298Z,95954
2018-05-02T00:13:01.188Z,95945
2018-05-02T00:15:30.057Z,95933
2018-05-02T00:17:58.965Z,95932
2018-05-02T00:20:27.887Z,95927
2018-05-02T00:22:57.520Z,95930
2018-05-02T00:25:26.392Z,95955
2018-05-02T00:27:55.314Z,95944
2018-05-02T00:30:24.191Z,95940
2018-05-02T00:32:53.871Z,95945
2018-05-02T00:35:23.555Z,95935
2018-05-02T00:37:52.428Z,95935
2018-05-02T00:40:21.336Z,95936
2018-05-02T00:42:50.973Z,95924
2018-05-02T00:45:21.125Z,95924
2018-05-02T00:47:50.767Z,95926
2018-05-02T00:50:19.652Z,95922
2018-05-02T00:52:48.545Z,95916
2018-05-02T00:55:17.527Z,95925
2018-05-02T00:57:46.395Z,95934
2018-05-02T01:00:16.197Z,95922
2018-05-02T01:02:45.074Z,95914
2018-05-02T01:05:13.935Z,95917
2018-05-02T01:07:42.844Z,95923
2018-05-02T01:10:12.512Z,95916
2018-05-02T01:12:41.398Z,95922
2018-05-02T01:15:10.276Z,95915
2018-05-02T01:17:39.145Z,95913
2018-05-02T01:20:08.050Z,95922
2018-05-02T01:22:36.914Z,95916
2018-05-02T01:25:06.546Z,95916
2018-05-02T01:27:35.464Z,95912
2018-05-02T01:30:04.351Z,95911
2018-05-02T01:32:34.018Z,95907
2018-05-02T01:35:02.905Z,95924
2018-05-02T01:37:31.777Z,95913
2018-05-02T01:40:00.679Z,95912
2018-05-02T01:42:29.572Z,95920
2018-05-02T01:44:58.443Z,95924
2018-05-02T01:47:27.307Z,95926
2018-05-02T01:49:56.207Z,95933
2018-05-02T01:52:25.073Z,95933
2018-05-02T01:54:53.936Z,95927
2018-05-02T01:57:22.829Z,95917
2018-05-02T01:59:51.726Z,95921
2018-05-02T02:02:21.403Z,95920
2018-05-02T02:04:50.288Z,95916
2018-05-02T02:07:19.160Z,95926
2018-05-02T02:09:48.090Z,95920
2018-05-02T02:12:17.787Z,95917
2018-05-02T02:14:48.637Z,95925
2018-05-02T02:17:17.621Z,95920
2018-05-02T02:19:46.483Z,95913
2018-05-02T02:22:15.364Z,95918
2018-05-02T02:24:44.228Z,95915
2018-05-02T02:27:13.115Z,95916
2018-05-02T02:29:42.008Z,95912
2018-05-02T02:32:10.874Z,95920
2018-05-02T02:34:39.777Z,95916
2018-05-02T02:37:08.644Z,95914
2018-05-02T02:39:37.511Z,95923
2018-05-02T02:42:06.425Z,95922
2018-05-02T02:44:36.068Z,95920
2018-05-02T02:47:04.942Z,95926
2018-05-02T02:49:33.846Z,95922
2018-05-02T02:52:03.500Z,95930
2018-05-02T02:54:32.407Z,95922
2018-05-02T02:57:01.285Z,95933
2018-05-02T02:59:30.183Z,95923
2018-05-02T03:01:59.885Z,95929
2018-05-02T03:04:28.756Z,95929
2018-05-02T03:06:58.392Z,95934
2018-05-02T03:09:27.294Z,95925
2018-05-02T03:11:56.204Z,95917
2018-05-02T03:14:26.275Z,95923
2018-05-02T03:16:55.331Z,95917
2018-05-02T03:19:24.229Z,95918
2018-05-02T03:21:53.099Z,95919
2018-05-02T03:24:21.969Z,95917
2018-05-02T03:26:50.874Z,95916
2018-05-02T03:29:20.520Z,95910
2018-05-02T03:31:49.394Z,95911
2018-05-02T03:34:18.282Z,95914
2018-05-02T03:36:47.147Z,95910
2018-05-02T03:39:16.013Z,95917
2018-05-02T03:41:44.931Z,95916
2018-05-02T03:44:14.555Z,95918
2018-05-02T03:46:43.435Z,95918
2018-05-02T03:49:12.340Z,95924
2018-05-02T03:51:41.235Z,95931
2018-05-02T03:54:10.163Z,95919
2018-05-02T03:56:39.043Z,95909
2018-05-02T03:59:07.920Z,95910
2018-05-02T04:01:54.562Z,95916
2018-05-02T04:04:42.005Z,95912
2018-05-02T04:07:14.920Z,95907
2018-05-02T04:09:43.798Z,95905
2018-05-02T04:12:12.706Z,95899
2018-05-02T04:14:42.365Z,95906
2018-05-02T04:17:11.244Z,95910
2018-05-02T04:19:40.139Z,95917
2018-05-02T04:22:09.782Z,95917
2018-05-02T04:24:38.677Z,95930
2018-05-02T04:27:07.575Z,95920
2018-05-02T04:29:37.226Z,95925
2018-05-02T04:32:06.099Z,95926
2018-05-02T04:34:35.002Z,95928
2018-05-02T04:37:03.897Z,95929
2018-05-02T04:39:33.564Z,95933
2018-05-02T04:42:02.437Z,95949
2018-05-02T04:44:31.318Z,95953
2018-05-02T04:47:00.228Z,95954
2018-05-02T04:49:29.111Z,95956
2018-05-02T04:51:57.982Z,95959
2018-05-02T04:54:26.889Z,95958
2018-05-02T04:56:55.806Z,95959
2018-05-02T04:59:25.517Z,95960
2018-05-02T05:01:54.367Z,95962
2018-05-02T05:04:23.264Z,95963
2018-05-02T05:06:52.135Z,95961
2018-05-02T05:09:21.053Z,95965
2018-05-02T05:11:49.928Z,95959
2018-05-02T05:14:20.011Z,95976
2018-05-02T05:16:48.967Z,95975
2018-05-02T05:19:17.835Z,95972
2018-05-02T05:21:47.494Z,95978
2018-05-02T05:24:16.394Z,95979
2018-05-02T05:26:46.043Z,95973
2018-05-02T05:29:14.951Z,95974
2018-05-02T05:31:43.815Z,95973
2018-05-02T05:34:12.698Z,95965
2018-05-02T05:36:41.595Z,95967
2018-05-02T05:39:11.232Z,95972
2018-05-02T05:41:40.108Z,95985
2018-05-02T05:44:09.036Z,95974
2018-05-02T05:46:38.675Z,95979
2018-05-02T05:49:07.545Z,95973
2018-05-02T05:51:36.452Z,95977
2018-05-02T05:54:05.364Z,95979
2018-05-02T05:56:34.267Z,95986
2018-05-02T05:59:03.141Z,95995
2018-05-02T06:01:32.058Z,95996
2018-05-02T06:04:00.924Z,95993
2018-05-02T06:06:29.792Z,95990
2018-05-02T06:08:59.450Z,95996
2018-05-02T06:11:28.329Z,95991
2018-05-02T06:13:57.221Z,95996
2018-05-02T06:16:26.104Z,96006
2018-05-02T06:18:54.997Z,96011
2018-05-02T06:21:23.876Z,96013
2018-05-02T06:23:53.616Z,96004
2018-05-02T06:26:22.483Z,96010
2018-05-02T06:28:51.353Z,96003
2018-05-02T06:31:20.255Z,96011
2018-05-02T06:33:49.672Z,96009
2018-05-02T06:36:18.548Z,96012
2018-05-02T06:38:47.440Z,96023
2018-05-02T06:41:17.111Z,96008
2018-05-02T06:43:45.995Z,96020
2018-05-02T06:46:15.960Z,96008
2018-05-02T06:48:44.859Z,96006
2018-05-02T06:51:13.735Z,96004
2018-05-02T06:53:42.600Z,96006
2018-05-02T06:56:11.519Z,96010
2018-05-02T06:58:41.196Z,96015
2018-05-02T07:01:10.063Z,96008
2018-05-02T07:03:38.934Z,96001
2018-05-02T07:06:07.828Z,96013
2018-05-02T07:08:37.467Z,96007
2018-05-02T07:11:06.375Z,96020
2018-05-02T07:13:35.248Z,96020
2018-05-02T07:16:04.935Z,96014
2018-05-02T07:18:33.847Z,96016
2018-05-02T07:21:03.503Z,96016
2018-05-02T07:23:32.379Z,96026
2018-05-02T07:26:01.307Z,96020
2018-05-02T07:28:30.214Z,96010
2018-05-02T07:30:59.083Z,96022
2018-05-02T07:33:27.955Z,96018
2018-05-02T07:35:56.871Z,96018
2018-05-02T07:38:25.740Z,96017
2018-05-02T07:40:54.610Z,96010
2018-05-02T07:43:23.515Z,96016
2018-05-02T07:45:53.171Z,96014
2018-05-02T07:48:22.059Z,96014
2018-05-02T07:50:50.947Z,96011
2018-05-02T07:53:20.584Z,96003
2018-05-02T07:55:49.480Z,96004
2018-05-02T07:58:18.358Z,96005
2018-05-02T08:00:47.247Z,96013
2018-05-02T08:03:16.141Z,96010
2018-05-02T08:05:45.795Z,96010
2018-05-02T08:08:14.688Z,96013
2018-05-02T08:10:43.556Z,96007
2018-05-02T08:13:13.253Z,96010
2018-05-02T08:15:42.117Z,96009
2018-05-02T08:18:11.004Z,96012
2018-05-02T08:20:39.899Z,96005
2018-05-02T08:23:08.835Z,96005
2018-05-02T08:25:37.717Z,96004
2018-05-02T08:28:06.591Z,96017
2018-05-02T08:30:35.499Z,96011
2018-05-02T08:33:05.147Z,96013
2018-05-02T08:35:34.019Z,96021
2018-05-02T08:38:02.912Z,96023
2018-05-02T08:40:31.780Z,96014
2018-05-02T08:43:00.672Z,96015
2018-05-02T08:45:29.566Z,96011
2018-05-02T08:47:59.208Z,96015
2018-05-02T08:50:28.109Z,96015
2018-05-02T08:52:56.998Z,96009
2018-05-02T08:55:25.887Z,96018
2018-05-02T08:57:55.515Z,96012
2018-05-02T09:00:24.404Z,96009
2018-05-02T09:02:53.335Z,96013
2018-05-02T09:05:22.219Z,96016
2018-05-02T09:07:51.091Z,96015
2018-05-02T09:10:20.015Z,96006
2018-05-02T09:12:48.899Z,96010
2018-05-02T09:15:18.105Z,96011
2018-05-02T09:17:47.763Z,96013
2018-05-02T09:20:16.667Z,96005
2018-05-02T09:22:46.311Z,96006
2018-05-02T09:25:15.185Z,96007
2018-05-02T09:27:44.081Z,95998
2018-05-02T09:30:12.947Z,96007
2018-05-02T09:32:41.867Z,95994
2018-05-02T09:35:10.744Z,96005
2018-05-02T09:37:40.376Z,96001
2018-05-02T09:40:09.291Z,95999
2018-05-02T09:42:38.180Z,95999
2018-05-02T09:45:07.822Z,95993
2018-05-02T09:47:36.723Z,95990
2018-05-02T09:50:05.600Z,95982
2018-05-02T09:52:34.512Z,95993
2018-05-02T09:55:03.416Z,95991
2018-05-02T09:57:32.291Z,95986
2018-05-02T10:00:01.213Z,95985
2018-05-02T10:02:30.090Z,95980
2018-05-02T10:04:58.970Z,95986
2018-05-02T10:07:28.627Z,95975
2018-05-02T10:09:57.519Z,95963
2018-05-02T10:12:26.435Z,95972
2018-05-02T10:14:55.291Z,95972
2018-05-02T10:17:24.955Z,95964
2018-05-02T10:19:53.825Z,95965
2018-05-02T10:22:24.238Z,95966
2018-05-02T10:24:53.109Z,95963
2018-05-02T10:27:21.989Z,95967
2018-05-02T10:29:50.898Z,95946
2018-05-02T10:32:20.541Z,95958
2018-05-02T10:34:49.413Z,95953
2018-05-02T10:37:18.311Z,95952
2018-05-02T10:39:47.183Z,95954
2018-05-02T10:42:16.055Z,95949
2018-05-02T10:44:44.944Z,95943
2018-05-02T10:47:13.816Z,95941
2018-05-02T10:49:42.722Z,95941
2018-05-02T10:52:11.617Z,95939
2018-05-02T10:54:40.488Z,95945
2018-05-02T10:57:09.399Z,95938
2018-05-02T10:59:39.805Z,95934
2018-05-02T11:02:08.719Z,95920
2018-05-02T11:04:37.596Z,95929
2018-05-02T11:07:07.252Z,95925
2018-05-02T11:09:36.154Z,95920
2018-05-02T11:12:05.788Z,95920
2018-05-02T11:14:34.700Z,95906
2018-05-02T11:17:03.584Z,95911
2018-05-02T11:19:32.463Z,95913
2018-05-02T11:22:01.382Z,95909
2018-05-02T11:24:30.262Z,95916
2018-05-02T11:26:59.186Z,95908
2018-05-02T11:29:28.058Z,95922
2018-05-02T11:31:56.971Z,95907
2018-05-02T11:34:25.903Z,95901
2018-05-02T11:36:54.818Z,95900
2018-05-02T11:39:23.695Z,95900
2018-05-02T11:41:52.591Z,95902
2018-05-02T11:44:21.462Z,95902
2018-05-02T11:46:50.343Z,95905
2018-05-02T11:49:19.255Z,95898
2018-05-02T11:51:48.124Z,95897
2018-05-02T11:54:16.999Z,95894
2018-05-02T11:56:45.882Z,95882
2018-05-02T11:59:14.774Z,95893
2018-05-02T12:01:44.464Z,95893
2018-05-02T12:04:14.137Z,95883
2018-05-02T12:06:43.034Z,95883
2018-05-02T12:09:12.668Z,95880
2018-05-02T12:11:41.564Z,95886
2018-05-02T12:14:10.436Z,95876
2018-05-02T12:16:39.332Z,95869
2018-05-02T12:19:08.242Z,95877
2018-05-02T12:21:37.128Z,95874
2018-05-02T12:24:06.005Z,95864
2018-05-02T12:26:34.966Z,95861
2018-05-02T12:29:03.841Z,95858
2018-05-02T12:31:32.723Z,95856
2018-05-02T12:34:01.636Z,95853
2018-05-02T12:36:30.507Z,95846
2018-05-02T12:38:59.380Z,95841
2018-05-02T12:41:28.272Z,95845
2018-05-02T12:43:57.171Z,95852
2018-05-02T12:46:26.852Z,95843
2018-05-02T12:48:55.732Z,95844
2018-05-02T12:51:25.372Z,95829
2018-05-02T12:53:54.273Z,95831
2018-05-02T12:56:23.199Z,95828
2018-05-02T12:58:52.075Z,95829
2018-05-02T13:01:20.952Z,95832
2018-05-02T13:03:49.857Z,95834
2018-05-02T13:06:18.735Z,95825
2018-05-02T13:08:47.684Z,95822
2018-05-02T13:11:16.556Z,95816
2018-05-02T13:13:45.431Z,95823
2018-05-02T13:16:14.343Z,95814
2018-05-02T13:18:43.225Z,95815
2018-05-02T13:21:12.087Z,95809
2018-05-02T13:23:40.995Z,95803
2018-05-02T13:26:09.867Z,95816
2018-05-02T13:28:38.738Z,95806
2018-05-02T13:31:07.648Z,95805
2018-05-02T13:33:36.538Z,95796
2018-05-02T13:36:05.427Z,95796
2018-05-02T13:38:34.315Z,95798
2018-05-02T13:41:03.230Z,95796
2018-05-02T13:43:32.871Z,95789
2018-05-02T13:46:01.746Z,95786
2018-05-02T13:48:30.670Z,95777
2018-05-02T13:51:00.316Z,95783
2018-05-02T13:53:29.188Z,95778
2018-05-02T13:55:58.084Z,95775
2018-05-02T13:58:26.972Z,95764
2018-05-02T14:00:55.933Z,95764
2018-05-02T14:03:25.651Z,95762
2018-05-02T14:05:55.290Z,95762
2018-05-02T14:08:24.339Z,95763
2018-05-02T14:10:53.874Z,95757
2018-05-02T14:13:22.765Z,95750
2018-05-02T14:15:51.768Z,95745
2018-05-02T14:18:21.359Z,95744
2018-05-02T14:20:51.034Z,95730
2018-05-02T14:23:19.928Z,95736
2018-05-02T14:25:49.579Z,95732
2018-05-02T14:28:18.472Z,95734
2018-05-02T14:30:47.345Z,95730
2018-05-02T14:33:16.248Z,95725
2018-05-02T14:35:45.136Z,95729
2018-05-02T14:38:14.039Z,95723
2018-05-02T14:40:42.954Z,95721
2018-05-02T14:43:11.832Z,95709
2018-05-02T14:45:40.760Z,95706
2018-05-02T14:48:09.648Z,95708
2018-05-02T14:50:38.549Z,95704
2018-05-02T14:53:07.427Z,95710
2018-05-02T14:55:36.319Z,95704
2018-05-02T14:58:05.204Z,95701
2018-05-02T15:00:34.864Z,95692
2018-05-02T15:03:03.746Z,95690
2018-05-02T15:05:32.664Z,95679
2018-05-02T15:08:01.547Z,95674
2018-05-02T15:10:30.415Z,95677
2018-05-02T15:12:59.322Z,95674
2018-05-02T15:15:28.199Z,95665
2018-05-02T15:17:57.179Z,95669
2018-05-02T15:20:26.072Z,95665
2018-05-02T15:22:54.946Z,95646
2018-05-02T15:25:23.876Z,95642
2018-05-02T15:27:52.760Z,95633
2018-05-02T15:30:21.631Z,95637
2018-05-02T15:32:50.527Z,95639
2018-05-02T15:35:19.423Z,95621
2018-05-02T15:37:48.319Z,95627
2018-05-02T15:40:18.055Z,95624
2018-05-02T15:42:46.882Z,95621
2018-05-02T15:45:15.775Z,95631
2018-05-02T15:47:44.702Z,95631
2018-05-02T15:50:13.604Z,95633
2018-05-02T15:52:43.255Z,95643
2018-05-02T15:55:12.228Z,95641
2018-05-02T15:57:41.125Z,95644
2018-05-02T16:00:10.030Z,95648
2018-05-02T16:02:39.691Z,95640
2018-05-02T16:05:08.587Z,95641
2018-05-02T16:07:37.483Z,95643
2018-05-02T16:10:06.396Z,95642
2018-05-02T16:12:36.035Z,95645
2018-05-02T16:15:06.078Z,95639
2018-05-02T16:17:34.943Z,95645
2018-05-02T16:20:03.887Z,95646
2018-05-02T16:22:33.526Z,95639
2018-05-02T16:25:02.415Z,95646
2018-05-02T16:27:31.335Z,95639
2018-05-02T16:30:00.987Z,95637
2018-05-02T16:32:29.879Z,95620
2018-05-02T16:34:58.803Z,95617
2018-05-02T16:37:27.682Z,95605
2018-05-02T16:39:56.585Z,95602
2018-05-02T16:42:25.591Z,95602
2018-05-02T16:44:54.551Z,95589
2018-05-02T16:47:23.408Z,95591
2018-05-02T16:49:52.362Z,95592
2018-05-02T16:52:21.198Z,95592
2018-05-02T16:54:50.863Z,95588
2018-05-02T16:57:19.735Z,95594
2018-05-02T16:59:48.659Z,95597
2018-05-02T17:02:17.568Z,95597
2018-05-02T17:04:46.459Z,95594
2018-05-02T17:07:15.532Z,95589
2018-05-02T17:09:44.501Z,95593
2018-05-02T17:12:14.192Z,95594
2018-05-02T17:14:43.111Z,95604
2018-05-02T17:17:12.043Z,95605
2018-05-02T17:19:41.308Z,95612
2018-05-02T17:22:10.258Z,95621
2018-05-02T17:24:39.095Z,95617
2018-05-02T17:27:08.921Z,95620
2018-05-02T17:29:37.801Z,95627
2018-05-02T17:32:07.481Z,95627
2018-05-02T17:34:36.399Z,95624
2018-05-02T17:37:05.266Z,95626
2018-05-02T17:39:34.194Z,95625
2018-05-02T17:42:03.087Z,95625
2018-05-02T17:44:32.743Z,95622
2018-05-02T17:47:02.423Z,95623
2018-05-02T17:49:31.287Z,95624
2018-05-02T17:52:00.174Z,95637
2018-05-02T17:54:29.074Z,95645
2018-05-02T17:56:57.995Z,95650
2018-05-02T17:59:26.875Z,95658
2018-05-02T18:01:55.846Z,95666
2018-05-02T18:04:24.747Z,95670
2018-05-02T18:06:53.681Z,95668
2018-05-02T18:09:22.885Z,95669
2018-05-02T18:11:51.838Z,95667
2018-05-02T18:14:21.808Z,95665
2018-05-02T18:16:51.490Z,95667
2018-05-02T18:19:20.372Z,95654
2018-05-02T18:21:49.267Z,95650
2018-05-02T18:24:18.139Z,95643
2018-05-02T18:26:47.040Z,95649
2018-05-02T18:29:15.988Z,95657
2018-05-02T18:31:44.920Z,95658
2018-05-02T18:34:13.943Z,95664
2018-05-02T18:36:42.814Z,95655
2018-05-02T18:39:11.687Z,95637
2018-05-02T18:41:40.588Z,95630
2018-05-02T18:44:10.230Z,95637
2018-05-02T18:46:39.328Z,95635
2018-05-02T18:49:08.204Z,95632
2018-05-02T18:51:37.127Z,95638
2018-05-02T18:54:06.007Z,95627
2018-05-02T18:56:34.883Z,95619
2018-05-02T18:59:03.807Z,95626
2018-05-02T19:01:32.687Z,95629
2018-05-02T19:04:01.599Z,95638
2018-05-02T19:06:30.996Z,95648
2018-05-02T19:08:59.871Z,95642
2018-05-02T19:11:28.752Z,95636
2018-05-02T19:14:01.561Z,95624
2018-05-02T19:16:30.441Z,95620
2018-05-02T19:19:04.753Z,95603
2018-05-02T19:21:33.634Z,95600
2018-05-02T19:24:03.381Z,95599
2018-05-02T19:26:37.279Z,95598
2018-05-02T19:29:06.249Z,95595
2018-05-02T19:31:41.320Z,95598
2018-05-02T19:34:11.050Z,95596
2018-05-02T19:36:39.924Z,95609
2018-05-02T19:39:08.942Z,95629
2018-05-02T19:41:43.212Z,95620
2018-05-02T19:44:12.132Z,95616
2018-05-02T19:46:41.803Z,95616
2018-05-02T19:49:10.688Z,95616
2018-05-02T19:51:45.175Z,95621
2018-05-02T19:54:14.078Z,95631
2018-05-02T19:56:42.984Z,95632
2018-05-02T19:59:11.884Z,95629
2018-05-02T20:01:46.439Z,95624
2018-05-02T20:04:15.359Z,95622
2018-05-02T20:06:44.239Z,95634
2018-05-02T20:09:18.936Z,95637
2018-05-02T20:11:53.334Z,95630
2018-05-02T20:14:22.256Z,95645
2018-05-02T20:16:51.189Z,95654
2018-05-02T20:19:20.088Z,95662
2018-05-02T20:21:49.003Z,95663
2018-05-02T20:24:18.673Z,95664
2018-05-02T20:26:47.590Z,95661
2018-05-02T20:29:17.229Z,95665
2018-05-02T20:31:46.120Z,95659
2018-05-02T20:34:15.037Z,95675
2018-05-02T20:36:43.938Z,95679
2018-05-02T20:39:12.854Z,95688
2018-05-02T20:41:41.735Z,95696
2018-05-02T20:44:10.655Z,95705
2018-05-02T20:46:39.578Z,95722
2018-05-02T20:49:08.457Z,95739
2018-05-02T20:51:37.344Z,95760
2018-05-02T20:54:06.259Z,95777
2018-05-02T20:56:35.146Z,95823
2018-05-02T20:59:04.083Z,95846
2018-05-02T21:01:33.716Z,95839
2018-05-02T21:04:02.594Z,95846
2018-05-02T21:06:31.514Z,95860
2018-05-02T21:09:01.168Z,95858
2018-05-02T21:11:30.053Z,95862
2018-05-02T21:13:59.019Z,95881
2018-05-02T21:16:27.903Z,95877
2018-05-02T21:18:56.784Z,95885
2018-05-02T21:21:25.680Z,95892
2018-05-02T21:23:55.362Z,95889
2018-05-02T21:26:24.283Z,95878
2018-05-02T21:28:53.159Z,95889
2018-05-02T21:31:22.031Z,95903
2018-05-02T21:33:50.944Z,95904
2018-05-02T21:36:19.848Z,95923
2018-05-02T21:38:49.492Z,95920
2018-05-02T21:41:18.423Z,95931
2018-05-02T21:43:47.339Z,95941
2018-05-02T21:46:16.260Z,95951
2018-05-02T21:48:45.159Z,95951
2018-05-02T21:51:14.848Z,95958
2018-05-02T21:53:44.508Z,95959
2018-05-02T21:56:13.389Z,95955
2018-05-02T21:58:42.287Z,95953
2018-05-02T22:01:11.970Z,95945
2018-05-02T22:03:41.639Z,95944
2018-05-02T22:06:10.541Z,95933
2018-05-02T22:08:40.228Z,95929
2018-05-02T22:11:09.122Z,95922
2018-05-02T22:13:38.018Z,95912
2018-05-02T22:16:06.963Z,95898
2018-05-02T22:18:36.620Z,95890
2018-05-02T22:21:06.350Z,95885
2018-05-02T22:23:35.236Z,95862
2018-05-02T22:26:04.883Z,95850
2018-05-02T22:28:33.795Z,95847
2018-05-02T22:31:03.459Z,95839
2018-05-02T22:33:32.380Z,95834
2018-05-02T22:36:01.275Z,95833
2018-05-02T22:38:30.150Z,95823
2018-05-02T22:40:59.046Z,95814
2018-05-02T22:43:27.971Z,95803
2018-05-02T22:45:57.632Z,95790
2018-05-02T22:48:26.516Z,95781
2018-05-02T22:50:55.432Z,95776
2018-05-02T22:53:24.355Z,95766
2018-05-02T22:55:53.245Z,95755
2018-05-02T22:58:22.936Z,95750
2018-05-02T23:00:52.608Z,95753
2018-05-02T23:03:21.487Z,95742
2018-05-02T23:05:50.391Z,95735
2018-05-02T23:08:20.063Z,95743
2018-05-02T23:10:48.975Z,95716
2018-05-02T23:13:17.869Z,95732
2018-05-02T23:15:46.787Z,95710
2018-05-02T23:18:15.723Z,95710
2018-05-02T23:20:44.606Z,95693
2018-05-02T23:23:13.528Z,95693
2018-05-02T23:25:42.410Z,95697
2018-05-02T23:28:12.082Z,95705
2018-05-02T23:30:40.972Z,95727
2018-05-02T23:33:10.653Z,95727
2018-05-02T23:35:39.531Z,95732
2018-05-02T23:38:08.411Z,95723
2018-05-02T23:40:37.340Z,95722
2018-05-02T23:43:06.220Z,95733
2018-05-02T23:45:35.119Z,95737
2018-05-02T23:48:04.036Z,95737
2018-05-02T23:50:32.917Z,95732
2018-05-02T23:53:01.805Z,95735
2018-05-02T23:55:30.704Z,95736
2018-05-02T23:57:59.584Z,95735
